NCAR-RAP Real-Time Weather Data

Output produced by METARs form (23 January 2018  15:42 UTC)
found at http://weather.rap.ucar.edu/surface/
 
RJAF 230700Z 24016G27KT 190V290 9999 -SHSN FEW030 SCT050 BKN060 01/M11 Q1002
RJAF 230600Z 24016G27KT 200V300 9999 -SHSN FEW020 SCT040 BKN060 03/M12 Q1001
RJAF 230507Z 16003KT 070V200 5000 -SHSN FEW005 SCT009 BKN015 00/M03 Q1001 RMK 1ST005 3ST009 6CU015 A2959 2000N
RJAF 230500Z 18007KT 1000 -SHSN FEW007 SCT015 BKN020 01/M03 Q1001
RJAF 230436Z 18006KT 070V250 4000 -SHSN FEW009 SCT015 BKN025 02/M04 Q1001 RMK 1ST009 3ST015 5CU025 A2958
RJAF 230400Z 22010KT 190V260 8000 -SHSN FEW020 SCT030 BKN040 03/M07 Q1001
RJAF 230314Z 18010KT 160V220 8000 -SHSN FEW010 SCT020 BKN050 03/M03 Q1001 RMK 1ST010 4CU020 6CU050 A2957 4000S
RJAF 230308Z 18020KT 3500 -SHSN FEW010 SCT020 BKN040 02/M02 Q1001 RMK 1ST010 3CU020 6CU040 A2957
RJAF 230300Z 19016G28KT 160V230 7000 -SHSN FEW015 SCT030 BKN040 02/M03 Q1001
RJAF 230200Z 18020KT 9999 -SHSN FEW020 SCT030 BKN050 03/M02 Q1002
RJAF 230100Z 18022KT 8000 -SHSN FEW010 SCT030 BKN040 02/M01 Q1002
RJAF 230000Z 18024KT 9000 -SHSN FEW010 SCT025 BKN035 02/M01 Q1003
RJAF 222330Z 18024KT 6000 -SHSN FEW010 SCT025 BKN035 01/M01 Q1003
RJAF 222310Z 16016KT 9000 -SHSN FEW010 SCT020 BKN030 01/M02 Q1003 RMK 1ST010 3CU020 5CU030 A2962
RJAF 220739Z 33003KT 300V360 0500 SN SCT002 BKN003 OVC013 M03/M03 Q1009 RMK 3ST002 6ST003 8ST013 A2981
RJAF 220712Z 33003KT 0400 SN FEW002 BKN003 OVC009 M03/M03 Q1009 RMK 1ST002 6ST003 8ST009 A2982
RJAF 220700Z VRB02KT 0500 SN FEW002 BKN003 OVC012 M03/M03 Q1009
RJAF 220639Z VRB02KT 0500 SN FEW002 BKN004 BKN010 M03/M03 Q1009 RMK 1ST002 6ST004 7ST010 A2981
RJAF 220634Z 28003KT 0700 SN FEW003 BKN004 BKN010 M03/M03 Q1009 RMK 1ST003 6ST004 7ST010 A2982
RJAF 220618Z VRB02KT 0700 SN FEW004 SCT006 BKN015 M03/M03 Q1009 RMK 2ST004 4ST006 7SC015 A2981
RJAF 220600Z VRB01KT 0900 SN FEW004 SCT006 BKN020 M03/M04 Q1009
RJAF 220520Z VRB02KT 1000 -SN FEW005 SCT007 BKN020 M03/M04 Q1010 RMK 2ST005 4ST007 7SC020 A2985
RJAF 220512Z VRB02KT 1500 -SN SCT007 BKN020 M03/M04 Q1010 RMK 3ST007 7SC020 A2985
RJAF 220500Z VRB02KT 2000 -SN FEW008 SCT015 BKN020 M02/M04 Q1011
RJAF 220400Z VRB02KT 9999 -SN FEW015 SCT040 BKN050 M02/M06 Q1011
RJAF 220300Z VRB02KT 9999 -SN FEW015 SCT040 BKN060 M02/M05 Q1014
RJAF 220200Z 33003KT 200V360 9999 FEW015 BKN070 BKN090 M02/M06 Q1015
RJAF 220100Z VRB02KT 9999 FEW015 BKN080 BKN100 M02/M05 Q1017
RJAF 220000Z 34003KT 9999 FEW013 BKN090 BKN110 M02/M05 Q1017
RJAF 212330Z 34002KT 9999 FEW013 BKN090 BKN110 M03/M05 Q1017
RJAF 212310Z 33002KT 9999 FEW013 BKN110 BKN130 M03/M05 Q1018 RMK 1ST013 6AC110 7AC130 A3006
RJAF 210700Z 28008KT 250V330 9999 FEW060 SCT070 06/M07 Q1013
RJAF 210600Z 26014KT 9999 FEW060 07/M07 Q1013
RJAF 210500Z 26016G26KT 9999 FEW050 08/M07 Q1012
RJAF 210400Z 35003KT 290V050 9999 FEW060 06/M03 Q1013